Amory, Mississippi
Current Conditions -  °F | °C
As of 7:35 AM on Thursday 30 Oct 2014 (Local Time) from KM40 Reporting Station
Haze Haze  
Wind Chill:   Ceiling: 200
Heat Index:   Visibility: 0.25mi
Dew Point: -1°   Wind: 0mph
Humidity: 75%   Direction: NA
Pressure: 30.17"   Gusts: NA
Location:  33.99°N, 88.49°W
Report Text: KM40 301235Z AUTO 00000KT 1/4SM HZ VV002 03/M01 A3017 RMK AO2
Loading
Personal Weather Stations






























Interactive Weather Map
Tropical Storm Tracking
New forecast layout! Learn more

10-Day Weather Forecast

Advertisements
Track Severe Weather on mobile